sensor_id;sensor_type;location;lat;lon;timestamp;P1;durP1;ratioP1;P2;durP2;ratioP2
42724;SDS011;28369;44.046;23.014;2023-03-14T00:00:57;23.27;;;16.00;;
42724;SDS011;28369;44.046;23.014;2023-03-14T00:03:23;20.95;;;14.95;;
42724;SDS011;28369;44.046;23.014;2023-03-14T00:05:49;23.08;;;15.68;;
42724;SDS011;28369;44.046;23.014;2023-03-14T00:08:14;23.45;;;15.18;;
42724;SDS011;28369;44.046;23.014;2023-03-14T00:10:40;21.55;;;15.32;;
42724;SDS011;28369;44.046;23.014;2023-03-14T00:13:06;22.60;;;15.68;;
42724;SDS011;28369;44.046;23.014;2023-03-14T00:15:33;22.92;;;14.57;;
42724;SDS011;28369;44.046;23.014;2023-03-14T00:17:59;19.77;;;14.57;;
42724;SDS011;28369;44.046;23.014;2023-03-14T00:20:26;20.58;;;14.40;;
42724;SDS011;28369;44.046;23.014;2023-03-14T00:22:51;20.92;;;14.88;;
42724;SDS011;28369;44.046;23.014;2023-03-14T00:25:17;22.50;;;15.23;;
42724;SDS011;28369;44.046;23.014;2023-03-14T00:27:43;23.20;;;15.75;;
42724;SDS011;28369;44.046;23.014;2023-03-14T00:30:08;19.65;;;14.57;;
42724;SDS011;28369;44.046;23.014;2023-03-14T00:32:36;22.38;;;15.32;;
42724;SDS011;28369;44.046;23.014;2023-03-14T00:35:02;22.33;;;15.85;;
42724;SDS011;28369;44.046;23.014;2023-03-14T00:37:28;19.95;;;14.60;;
42724;SDS011;28369;44.046;23.014;2023-03-14T00:39:54;18.83;;;14.18;;
42724;SDS011;28369;44.046;23.014;2023-03-14T00:42:20;22.30;;;14.15;;
42724;SDS011;28369;44.046;23.014;2023-03-14T00:44:45;21.48;;;14.70;;
42724;SDS011;28369;44.046;23.014;2023-03-14T00:47:11;19.90;;;15.13;;
42724;SDS011;28369;44.046;23.014;2023-03-14T00:49:37;23.23;;;15.93;;
42724;SDS011;28369;44.046;23.014;2023-03-14T00:52:03;23.42;;;15.80;;
42724;SDS011;28369;44.046;23.014;2023-03-14T00:54:28;20.17;;;15.00;;
42724;SDS011;28369;44.046;23.014;2023-03-14T00:56:55;24.35;;;16.33;;
42724;SDS011;28369;44.046;23.014;2023-03-14T00:59:20;20.88;;;14.60;;
42724;SDS011;28369;44.046;23.014;2023-03-14T01:01:46;25.27;;;16.38;;
42724;SDS011;28369;44.046;23.014;2023-03-14T01:04:12;23.13;;;16.63;;
42724;SDS011;28369;44.046;23.014;2023-03-14T01:06:38;23.08;;;17.10;;
42724;SDS011;28369;44.046;23.014;2023-03-14T01:09:04;23.88;;;16.27;;
42724;SDS011;28369;44.046;23.014;2023-03-14T01:11:30;23.15;;;15.98;;
42724;SDS011;28369;44.046;23.014;2023-03-14T01:13:58;21.67;;;15.13;;
42724;SDS011;28369;44.046;23.014;2023-03-14T01:16:25;19.27;;;14.40;;
42724;SDS011;28369;44.046;23.014;2023-03-14T01:18:52;23.55;;;15.13;;
42724;SDS011;28369;44.046;23.014;2023-03-14T01:24:04;20.95;;;15.85;;
42724;SDS011;28369;44.046;23.014;2023-03-14T01:26:31;22.37;;;16.70;;
42724;SDS011;28369;44.046;23.014;2023-03-14T01:28:58;24.23;;;16.60;;
42724;SDS011;28369;44.046;23.014;2023-03-14T01:31:24;25.55;;;17.48;;
42724;SDS011;28369;44.046;23.014;2023-03-14T01:33:51;24.23;;;17.60;;
42724;SDS011;28369;44.046;23.014;2023-03-14T01:36:17;25.92;;;19.10;;
42724;SDS011;28369;44.046;23.014;2023-03-14T01:38:44;26.13;;;19.07;;
42724;SDS011;28369;44.046;23.014;2023-03-14T01:41:15;31.53;;;19.27;;
42724;SDS011;28369;44.046;23.014;2023-03-14T01:43:46;27.70;;;20.17;;
42724;SDS011;28369;44.046;23.014;2023-03-14T01:46:57;29.57;;;20.80;;
42724;SDS011;28369;44.046;23.014;2023-03-14T01:52:00;27.07;;;19.10;;
42724;SDS011;28369;44.046;23.014;2023-03-14T01:57:35;28.20;;;19.33;;
42724;SDS011;28369;44.046;23.014;2023-03-14T02:00:10;27.70;;;19.00;;
42724;SDS011;28369;44.046;23.014;2023-03-14T02:02:41;28.30;;;20.05;;
42724;SDS011;28369;44.046;23.014;2023-03-14T02:05:11;26.67;;;19.73;;
42724;SDS011;28369;44.046;23.014;2023-03-14T02:07:54;25.83;;;18.63;;
42724;SDS011;28369;44.046;23.014;2023-03-14T02:10:23;28.67;;;19.23;;
42724;SDS011;28369;44.046;23.014;2023-03-14T02:12:55;26.77;;;18.30;;
42724;SDS011;28369;44.046;23.014;2023-03-14T02:15:22;24.10;;;17.70;;
42724;SDS011;28369;44.046;23.014;2023-03-14T02:17:48;26.77;;;19.60;;
42724;SDS011;28369;44.046;23.014;2023-03-14T02:23:12;26.67;;;18.47;;
42724;SDS011;28369;44.046;23.014;2023-03-14T02:28:09;27.00;;;19.23;;
42724;SDS011;28369;44.046;23.014;2023-03-14T02:30:35;24.63;;;18.57;;
42724;SDS011;28369;44.046;23.014;2023-03-14T02:33:05;30.10;;;20.13;;
42724;SDS011;28369;44.046;23.014;2023-03-14T02:41:11;26.50;;;19.43;;
42724;SDS011;28369;44.046;23.014;2023-03-14T02:43:37;28.03;;;18.43;;
42724;SDS011;28369;44.046;23.014;2023-03-14T02:46:03;28.97;;;18.33;;
42724;SDS011;28369;44.046;23.014;2023-03-14T02:48:32;29.10;;;18.40;;
42724;SDS011;28369;44.046;23.014;2023-03-14T02:51:04;25.92;;;17.35;;
42724;SDS011;28369;44.046;23.014;2023-03-14T02:53:31;27.10;;;18.25;;
42724;SDS011;28369;44.046;23.014;2023-03-14T02:55:58;24.80;;;17.30;;
42724;SDS011;28369;44.046;23.014;2023-03-14T02:58:24;28.40;;;17.00;;
42724;SDS011;28369;44.046;23.014;2023-03-14T03:00:51;25.20;;;17.20;;
42724;SDS011;28369;44.046;23.014;2023-03-14T03:03:17;27.00;;;18.33;;
42724;SDS011;28369;44.046;23.014;2023-03-14T03:05:43;27.83;;;20.50;;
42724;SDS011;28369;44.046;23.014;2023-03-14T03:08:12;31.33;;;19.80;;
42724;SDS011;28369;44.046;23.014;2023-03-14T03:10:38;30.20;;;21.33;;
42724;SDS011;28369;44.046;23.014;2023-03-14T03:13:05;33.10;;;20.40;;
42724;SDS011;28369;44.046;23.014;2023-03-14T03:15:31;30.23;;;19.50;;
42724;SDS011;28369;44.046;23.014;2023-03-14T03:17:57;26.20;;;19.50;;
42724;SDS011;28369;44.046;23.014;2023-03-14T03:20:23;27.63;;;18.23;;
42724;SDS011;28369;44.046;23.014;2023-03-14T03:22:49;29.33;;;19.00;;
42724;SDS011;28369;44.046;23.014;2023-03-14T03:25:15;26.70;;;18.50;;
42724;SDS011;28369;44.046;23.014;2023-03-14T03:27:44;25.97;;;19.17;;
42724;SDS011;28369;44.046;23.014;2023-03-14T03:32:38;27.10;;;21.10;;
42724;SDS011;28369;44.046;23.014;2023-03-14T03:35:05;32.13;;;20.97;;
42724;SDS011;28369;44.046;23.014;2023-03-14T03:37:33;34.00;;;22.03;;
42724;SDS011;28369;44.046;23.014;2023-03-14T03:40:00;29.20;;;20.83;;
42724;SDS011;28369;44.046;23.014;2023-03-14T03:42:29;28.80;;;21.30;;
42724;SDS011;28369;44.046;23.014;2023-03-14T03:44:55;30.80;;;22.33;;
42724;SDS011;28369;44.046;23.014;2023-03-14T03:47:21;29.73;;;21.33;;
42724;SDS011;28369;44.046;23.014;2023-03-14T03:49:49;30.43;;;20.30;;
42724;SDS011;28369;44.046;23.014;2023-03-14T03:52:15;27.87;;;19.70;;
42724;SDS011;28369;44.046;23.014;2023-03-14T03:54:41;26.57;;;18.13;;
42724;SDS011;28369;44.046;23.014;2023-03-14T03:57:07;27.47;;;19.23;;
42724;SDS011;28369;44.046;23.014;2023-03-14T03:59:33;29.83;;;19.27;;
42724;SDS011;28369;44.046;23.014;2023-03-14T04:02:00;25.33;;;18.53;;
42724;SDS011;28369;44.046;23.014;2023-03-14T04:04:26;26.00;;;18.53;;
42724;SDS011;28369;44.046;23.014;2023-03-14T04:06:52;26.40;;;20.37;;
42724;SDS011;28369;44.046;23.014;2023-03-14T04:09:20;30.93;;;19.60;;
42724;SDS011;28369;44.046;23.014;2023-03-14T04:11:45;28.90;;;19.10;;
42724;SDS011;28369;44.046;23.014;2023-03-14T04:14:11;26.93;;;18.77;;
42724;SDS011;28369;44.046;23.014;2023-03-14T04:16:37;26.77;;;19.47;;
42724;SDS011;28369;44.046;23.014;2023-03-14T04:19:07;28.80;;;21.13;;
42724;SDS011;28369;44.046;23.014;2023-03-14T04:21:33;45.83;;;28.57;;
42724;SDS011;28369;44.046;23.014;2023-03-14T04:23:59;74.57;;;38.20;;
42724;SDS011;28369;44.046;23.014;2023-03-14T04:26:26;31.70;;;20.13;;
42724;SDS011;28369;44.046;23.014;2023-03-14T04:28:51;29.93;;;20.67;;
42724;SDS011;28369;44.046;23.014;2023-03-14T04:31:18;31.43;;;20.73;;
42724;SDS011;28369;44.046;23.014;2023-03-14T04:33:46;30.67;;;21.97;;
42724;SDS011;28369;44.046;23.014;2023-03-14T04:36:12;28.33;;;20.07;;
42724;SDS011;28369;44.046;23.014;2023-03-14T04:38:39;24.57;;;18.50;;
42724;SDS011;28369;44.046;23.014;2023-03-14T04:41:05;27.50;;;20.00;;
42724;SDS011;28369;44.046;23.014;2023-03-14T04:43:31;28.17;;;20.37;;
42724;SDS011;28369;44.046;23.014;2023-03-14T04:45:58;30.07;;;20.70;;
42724;SDS011;28369;44.046;23.014;2023-03-14T04:48:28;28.40;;;20.43;;
42724;SDS011;28369;44.046;23.014;2023-03-14T04:50:55;31.43;;;23.43;;
42724;SDS011;28369;44.046;23.014;2023-03-14T04:53:24;32.47;;;23.00;;
42724;SDS011;28369;44.046;23.014;2023-03-14T04:55:50;29.77;;;20.67;;
42724;SDS011;28369;44.046;23.014;2023-03-14T04:58:18;30.40;;;20.97;;
42724;SDS011;28369;44.046;23.014;2023-03-14T05:00:45;27.93;;;20.80;;
42724;SDS011;28369;44.046;23.014;2023-03-14T05:03:11;29.87;;;20.40;;
42724;SDS011;28369;44.046;23.014;2023-03-14T05:05:40;31.00;;;22.33;;
42724;SDS011;28369;44.046;23.014;2023-03-14T05:08:07;28.47;;;19.53;;
42724;SDS011;28369;44.046;23.014;2023-03-14T05:10:33;26.33;;;19.37;;
42724;SDS011;28369;44.046;23.014;2023-03-14T05:13:06;22.17;;;17.15;;
42724;SDS011;28369;44.046;23.014;2023-03-14T05:15:36;24.57;;;18.07;;
42724;SDS011;28369;44.046;23.014;2023-03-14T05:18:03;22.20;;;16.87;;
42724;SDS011;28369;44.046;23.014;2023-03-14T05:20:30;23.00;;;17.20;;
42724;SDS011;28369;44.046;23.014;2023-03-14T05:22:56;25.40;;;17.10;;
42724;SDS011;28369;44.046;23.014;2023-03-14T05:25:22;23.70;;;17.10;;
42724;SDS011;28369;44.046;23.014;2023-03-14T05:27:48;22.30;;;16.50;;
42724;SDS011;28369;44.046;23.014;2023-03-14T05:30:14;32.97;;;20.33;;
42724;SDS011;28369;44.046;23.014;2023-03-14T05:32:40;35.40;;;22.60;;
42724;SDS011;28369;44.046;23.014;2023-03-14T05:35:06;37.23;;;23.63;;
42724;SDS011;28369;44.046;23.014;2023-03-14T05:37:32;55.88;;;27.88;;
42724;SDS011;28369;44.046;23.014;2023-03-14T05:39:59;39.17;;;20.95;;
42724;SDS011;28369;44.046;23.014;2023-03-14T05:42:25;43.08;;;28.48;;
42724;SDS011;28369;44.046;23.014;2023-03-14T05:44:50;49.92;;;30.90;;
42724;SDS011;28369;44.046;23.014;2023-03-14T05:47:16;41.75;;;26.95;;
42724;SDS011;28369;44.046;23.014;2023-03-14T05:49:42;56.92;;;30.88;;
42724;SDS011;28369;44.046;23.014;2023-03-14T05:52:07;42.53;;;24.90;;
42724;SDS011;28369;44.046;23.014;2023-03-14T05:54:33;32.05;;;19.55;;
42724;SDS011;28369;44.046;23.014;2023-03-14T05:56:59;30.98;;;19.73;;
42724;SDS011;28369;44.046;23.014;2023-03-14T05:59:24;26.05;;;18.13;;
42724;SDS011;28369;44.046;23.014;2023-03-14T06:01:50;27.05;;;19.83;;
42724;SDS011;28369;44.046;23.014;2023-03-14T06:04:16;29.58;;;20.92;;
42724;SDS011;28369;44.046;23.014;2023-03-14T06:06:41;28.33;;;20.05;;
42724;SDS011;28369;44.046;23.014;2023-03-14T06:09:07;32.25;;;20.90;;
42724;SDS011;28369;44.046;23.014;2023-03-14T06:11:33;38.75;;;25.10;;
42724;SDS011;28369;44.046;23.014;2023-03-14T06:13:58;24.02;;;17.60;;
42724;SDS011;28369;44.046;23.014;2023-03-14T06:16:24;23.10;;;16.88;;
42724;SDS011;28369;44.046;23.014;2023-03-14T06:18:49;20.48;;;16.00;;
42724;SDS011;28369;44.046;23.014;2023-03-14T06:21:16;24.67;;;16.23;;
42724;SDS011;28369;44.046;23.014;2023-03-14T06:23:41;25.15;;;16.48;;
42724;SDS011;28369;44.046;23.014;2023-03-14T06:26:07;21.35;;;16.75;;
42724;SDS011;28369;44.046;23.014;2023-03-14T06:28:33;21.27;;;15.90;;
42724;SDS011;28369;44.046;23.014;2023-03-14T06:30:59;21.23;;;16.50;;
42724;SDS011;28369;44.046;23.014;2023-03-14T06:33:25;21.23;;;15.40;;
42724;SDS011;28369;44.046;23.014;2023-03-14T06:35:51;23.58;;;16.60;;
42724;SDS011;28369;44.046;23.014;2023-03-14T06:38:16;20.60;;;15.43;;
42724;SDS011;28369;44.046;23.014;2023-03-14T06:40:42;22.52;;;15.27;;
42724;SDS011;28369;44.046;23.014;2023-03-14T06:43:08;21.27;;;16.17;;
42724;SDS011;28369;44.046;23.014;2023-03-14T06:45:33;22.60;;;15.68;;
42724;SDS011;28369;44.046;23.014;2023-03-14T06:47:59;21.55;;;15.48;;
42724;SDS011;28369;44.046;23.014;2023-03-14T06:50:25;21.05;;;15.18;;
42724;SDS011;28369;44.046;23.014;2023-03-14T06:52:50;25.40;;;14.63;;
42724;SDS011;28369;44.046;23.014;2023-03-14T06:55:16;18.88;;;14.30;;
42724;SDS011;28369;44.046;23.014;2023-03-14T06:57:42;20.77;;;14.70;;
42724;SDS011;28369;44.046;23.014;2023-03-14T07:00:09;18.00;;;13.90;;
42724;SDS011;28369;44.046;23.014;2023-03-14T07:02:36;19.20;;;13.60;;
42724;SDS011;28369;44.046;23.014;2023-03-14T07:05:01;19.23;;;13.52;;
42724;SDS011;28369;44.046;23.014;2023-03-14T07:07:27;30.63;;;19.77;;
42724;SDS011;28369;44.046;23.014;2023-03-14T07:09:53;25.08;;;16.80;;
42724;SDS011;28369;44.046;23.014;2023-03-14T07:12:18;22.00;;;15.27;;
42724;SDS011;28369;44.046;23.014;2023-03-14T07:14:44;18.13;;;13.82;;
42724;SDS011;28369;44.046;23.014;2023-03-14T07:17:10;21.08;;;13.05;;
42724;SDS011;28369;44.046;23.014;2023-03-14T07:19:35;17.42;;;12.10;;
42724;SDS011;28369;44.046;23.014;2023-03-14T07:22:02;46.03;;;26.23;;
42724;SDS011;28369;44.046;23.014;2023-03-14T07:24:29;15.20;;;11.30;;
42724;SDS011;28369;44.046;23.014;2023-03-14T07:26:55;15.60;;;11.77;;
42724;SDS011;28369;44.046;23.014;2023-03-14T07:29:20;20.65;;;12.65;;
42724;SDS011;28369;44.046;23.014;2023-03-14T07:31:46;13.88;;;11.02;;
42724;SDS011;28369;44.046;23.014;2023-03-14T07:34:11;15.35;;;11.68;;
42724;SDS011;28369;44.046;23.014;2023-03-14T07:36:37;14.48;;;11.30;;
42724;SDS011;28369;44.046;23.014;2023-03-14T07:39:02;17.52;;;11.55;;
42724;SDS011;28369;44.046;23.014;2023-03-14T07:41:29;16.13;;;11.27;;
42724;SDS011;28369;44.046;23.014;2023-03-14T07:43:56;15.35;;;11.20;;
42724;SDS011;28369;44.046;23.014;2023-03-14T07:46:22;12.30;;;10.10;;
42724;SDS011;28369;44.046;23.014;2023-03-14T07:48:47;13.82;;;10.57;;
42724;SDS011;28369;44.046;23.014;2023-03-14T07:51:13;14.23;;;11.02;;
42724;SDS011;28369;44.046;23.014;2023-03-14T07:53:39;14.80;;;10.82;;
42724;SDS011;28369;44.046;23.014;2023-03-14T07:56:04;17.40;;;11.07;;
42724;SDS011;28369;44.046;23.014;2023-03-14T07:58:30;14.85;;;10.23;;
42724;SDS011;28369;44.046;23.014;2023-03-14T08:00:58;13.60;;;10.15;;
42724;SDS011;28369;44.046;23.014;2023-03-14T08:03:23;14.07;;;10.10;;
42724;SDS011;28369;44.046;23.014;2023-03-14T08:05:49;15.35;;;11.18;;
42724;SDS011;28369;44.046;23.014;2023-03-14T08:08:16;14.57;;;11.05;;
42724;SDS011;28369;44.046;23.014;2023-03-14T08:10:42;19.30;;;11.48;;
42724;SDS011;28369;44.046;23.014;2023-03-14T08:13:08;24.80;;;18.15;;
42724;SDS011;28369;44.046;23.014;2023-03-14T08:15:34;16.60;;;12.80;;
42724;SDS011;28369;44.046;23.014;2023-03-14T08:18:00;12.77;;;10.07;;
42724;SDS011;28369;44.046;23.014;2023-03-14T08:20:27;17.98;;;13.13;;
42724;SDS011;28369;44.046;23.014;2023-03-14T08:22:55;13.48;;;11.25;;
42724;SDS011;28369;44.046;23.014;2023-03-14T08:25:25;16.73;;;10.98;;
42724;SDS011;28369;44.046;23.014;2023-03-14T08:27:51;17.75;;;12.65;;
42724;SDS011;28369;44.046;23.014;2023-03-14T08:30:18;15.50;;;12.00;;
42724;SDS011;28369;44.046;23.014;2023-03-14T08:32:45;16.88;;;12.93;;
42724;SDS011;28369;44.046;23.014;2023-03-14T08:35:10;17.15;;;12.82;;
42724;SDS011;28369;44.046;23.014;2023-03-14T08:37:36;22.95;;;16.13;;
42724;SDS011;28369;44.046;23.014;2023-03-14T08:40:03;14.52;;;12.65;;
42724;SDS011;28369;44.046;23.014;2023-03-14T08:42:31;13.55;;;10.13;;
42724;SDS011;28369;44.046;23.014;2023-03-14T08:44:58;12.45;;;9.45;;
42724;SDS011;28369;44.046;23.014;2023-03-14T08:47:23;13.60;;;9.90;;
42724;SDS011;28369;44.046;23.014;2023-03-14T08:49:50;17.13;;;10.80;;
42724;SDS011;28369;44.046;23.014;2023-03-14T08:52:16;18.35;;;11.68;;
42724;SDS011;28369;44.046;23.014;2023-03-14T08:54:45;21.75;;;12.65;;
42724;SDS011;28369;44.046;23.014;2023-03-14T08:57:11;20.73;;;13.15;;
42724;SDS011;28369;44.046;23.014;2023-03-14T08:59:37;20.05;;;12.55;;
42724;SDS011;28369;44.046;23.014;2023-03-14T09:02:03;18.10;;;12.00;;
42724;SDS011;28369;44.046;23.014;2023-03-14T09:04:32;16.25;;;12.73;;
42724;SDS011;28369;44.046;23.014;2023-03-14T09:06:58;22.73;;;13.50;;
42724;SDS011;28369;44.046;23.014;2023-03-14T09:09:25;17.10;;;12.77;;
42724;SDS011;28369;44.046;23.014;2023-03-14T09:11:55;17.77;;;11.55;;
42724;SDS011;28369;44.046;23.014;2023-03-14T09:14:20;15.27;;;11.35;;
42724;SDS011;28369;44.046;23.014;2023-03-14T09:16:46;14.90;;;11.73;;
42724;SDS011;28369;44.046;23.014;2023-03-14T09:19:11;14.48;;;11.90;;
42724;SDS011;28369;44.046;23.014;2023-03-14T09:21:37;15.02;;;12.52;;
42724;SDS011;28369;44.046;23.014;2023-03-14T09:24:04;19.55;;;13.32;;
42724;SDS011;28369;44.046;23.014;2023-03-14T09:26:30;16.17;;;12.80;;
42724;SDS011;28369;44.046;23.014;2023-03-14T09:28:56;17.60;;;12.85;;
42724;SDS011;28369;44.046;23.014;2023-03-14T09:31:21;23.50;;;13.40;;
42724;SDS011;28369;44.046;23.014;2023-03-14T09:33:47;18.70;;;13.73;;
42724;SDS011;28369;44.046;23.014;2023-03-14T09:36:12;16.45;;;13.48;;
42724;SDS011;28369;44.046;23.014;2023-03-14T09:38:38;16.80;;;13.07;;
42724;SDS011;28369;44.046;23.014;2023-03-14T09:41:10;18.60;;;13.20;;
42724;SDS011;28369;44.046;23.014;2023-03-14T09:43:41;21.05;;;11.73;;
42724;SDS011;28369;44.046;23.014;2023-03-14T09:46:09;16.27;;;12.48;;
42724;SDS011;28369;44.046;23.014;2023-03-14T09:48:36;19.65;;;11.95;;
42724;SDS011;28369;44.046;23.014;2023-03-14T09:51:06;18.85;;;12.75;;
42724;SDS011;28369;44.046;23.014;2023-03-14T09:53:41;18.30;;;11.60;;
42724;SDS011;28369;44.046;23.014;2023-03-14T09:56:13;14.60;;;11.90;;
42724;SDS011;28369;44.046;23.014;2023-03-14T09:58:46;16.70;;;12.57;;
42724;SDS011;28369;44.046;23.014;2023-03-14T10:01:16;16.25;;;12.18;;
42724;SDS011;28369;44.046;23.014;2023-03-14T10:06:13;16.23;;;11.68;;
42724;SDS011;28369;44.046;23.014;2023-03-14T10:08:43;20.50;;;11.65;;
42724;SDS011;28369;44.046;23.014;2023-03-14T10:11:15;19.13;;;11.57;;
42724;SDS011;28369;44.046;23.014;2023-03-14T10:16:39;15.02;;;11.77;;
42724;SDS011;28369;44.046;23.014;2023-03-14T10:19:09;19.52;;;10.30;;
42724;SDS011;28369;44.046;23.014;2023-03-14T10:21:40;10.93;;;9.77;;
42724;SDS011;28369;44.046;23.014;2023-03-14T10:24:26;11.85;;;9.82;;
42724;SDS011;28369;44.046;23.014;2023-03-14T10:26:53;19.23;;;10.65;;
42724;SDS011;28369;44.046;23.014;2023-03-14T10:29:30;11.32;;;9.40;;
42724;SDS011;28369;44.046;23.014;2023-03-14T10:31:59;15.52;;;11.25;;
42724;SDS011;28369;44.046;23.014;2023-03-14T10:37:07;14.00;;;9.18;;
42724;SDS011;28369;44.046;23.014;2023-03-14T10:39:47;10.25;;;8.90;;
42724;SDS011;28369;44.046;23.014;2023-03-14T10:42:19;17.13;;;11.38;;
42724;SDS011;28369;44.046;23.014;2023-03-14T10:44:49;20.15;;;15.85;;
42724;SDS011;28369;44.046;23.014;2023-03-14T10:47:22;13.57;;;9.13;;
42724;SDS011;28369;44.046;23.014;2023-03-14T10:49:50;13.68;;;8.77;;
42724;SDS011;28369;44.046;23.014;2023-03-14T10:52:22;12.75;;;8.68;;
42724;SDS011;28369;44.046;23.014;2023-03-14T10:55:08;12.43;;;8.75;;
42724;SDS011;28369;44.046;23.014;2023-03-14T10:57:40;13.27;;;8.93;;
42724;SDS011;28369;44.046;23.014;2023-03-14T11:00:15;10.52;;;8.60;;
42724;SDS011;28369;44.046;23.014;2023-03-14T11:05:34;9.32;;;8.10;;
42724;SDS011;28369;44.046;23.014;2023-03-14T11:08:07;11.40;;;8.23;;
42724;SDS011;28369;44.046;23.014;2023-03-14T11:16:37;10.40;;;8.38;;
42724;SDS011;28369;44.046;23.014;2023-03-14T11:22:13;8.75;;;6.90;;
42724;SDS011;28369;44.046;23.014;2023-03-14T11:24:49;9.85;;;7.40;;
42724;SDS011;28369;44.046;23.014;2023-03-14T11:27:44;10.48;;;7.63;;
42724;SDS011;28369;44.046;23.014;2023-03-14T11:38:12;9.32;;;7.43;;
42724;SDS011;28369;44.046;23.014;2023-03-14T11:40:46;9.43;;;7.80;;
42724;SDS011;28369;44.046;23.014;2023-03-14T11:43:30;8.73;;;7.30;;
42724;SDS011;28369;44.046;23.014;2023-03-14T11:46:27;9.45;;;6.93;;
42724;SDS011;28369;44.046;23.014;2023-03-14T11:52:47;9.90;;;8.05;;
42724;SDS011;28369;44.046;23.014;2023-03-14T11:55:13;13.05;;;9.88;;
42724;SDS011;28369;44.046;23.014;2023-03-14T12:01:12;13.68;;;8.30;;
42724;SDS011;28369;44.046;23.014;2023-03-14T12:04:34;10.55;;;7.80;;
42724;SDS011;28369;44.046;23.014;2023-03-14T12:07:29;8.80;;;6.65;;
42724;SDS011;28369;44.046;23.014;2023-03-14T12:12:38;7.40;;;5.60;;
42724;SDS011;28369;44.046;23.014;2023-03-14T12:15:40;8.27;;;5.93;;
42724;SDS011;28369;44.046;23.014;2023-03-14T12:18:26;7.90;;;5.38;;
42724;SDS011;28369;44.046;23.014;2023-03-14T12:20:56;9.00;;;5.82;;
42724;SDS011;28369;44.046;23.014;2023-03-14T13:12:57;7.55;;;5.10;;
42724;SDS011;28369;44.046;23.014;2023-03-14T13:44:30;6.75;;;4.03;;
42724;SDS011;28369;44.046;23.014;2023-03-14T14:34:01;7.25;;;3.15;;
42724;SDS011;28369;44.046;23.014;2023-03-14T14:39:02;10.98;;;6.22;;
42724;SDS011;28369;44.046;23.014;2023-03-14T14:41:41;15.75;;;10.95;;
42724;SDS011;28369;44.046;23.014;2023-03-14T16:45:31;6.43;;;4.97;;
42724;SDS011;28369;44.046;23.014;2023-03-14T16:48:04;10.95;;;9.02;;
42724;SDS011;28369;44.046;23.014;2023-03-14T16:53:23;14.95;;;7.22;;
42724;SDS011;28369;44.046;23.014;2023-03-14T16:55:53;8.82;;;5.70;;
42724;SDS011;28369;44.046;23.014;2023-03-14T16:58:21;15.60;;;5.18;;
42724;SDS011;28369;44.046;23.014;2023-03-14T17:00:48;9.10;;;5.68;;
42724;SDS011;28369;44.046;23.014;2023-03-14T17:03:15;7.80;;;5.25;;
42724;SDS011;28369;44.046;23.014;2023-03-14T17:05:45;7.10;;;5.45;;
42724;SDS011;28369;44.046;23.014;2023-03-14T17:08:14;8.15;;;5.85;;
42724;SDS011;28369;44.046;23.014;2023-03-14T17:10:43;11.68;;;5.35;;
42724;SDS011;28369;44.046;23.014;2023-03-14T17:13:11;11.88;;;7.25;;
42724;SDS011;28369;44.046;23.014;2023-03-14T17:15:44;11.05;;;6.40;;
42724;SDS011;28369;44.046;23.014;2023-03-14T17:18:12;8.98;;;6.50;;
42724;SDS011;28369;44.046;23.014;2023-03-14T17:20:39;15.55;;;6.57;;
42724;SDS011;28369;44.046;23.014;2023-03-14T17:23:06;8.80;;;5.88;;
42724;SDS011;28369;44.046;23.014;2023-03-14T17:25:32;10.73;;;7.05;;
42724;SDS011;28369;44.046;23.014;2023-03-14T17:28:00;12.20;;;7.18;;
42724;SDS011;28369;44.046;23.014;2023-03-14T17:30:27;11.43;;;7.50;;
42724;SDS011;28369;44.046;23.014;2023-03-14T17:32:54;17.25;;;8.73;;
42724;SDS011;28369;44.046;23.014;2023-03-14T17:35:23;12.95;;;7.55;;
42724;SDS011;28369;44.046;23.014;2023-03-14T17:37:50;11.40;;;7.78;;
42724;SDS011;28369;44.046;23.014;2023-03-14T17:40:17;14.85;;;8.38;;
42724;SDS011;28369;44.046;23.014;2023-03-14T17:42:43;14.38;;;8.00;;
42724;SDS011;28369;44.046;23.014;2023-03-14T17:45:10;14.45;;;7.05;;
42724;SDS011;28369;44.046;23.014;2023-03-14T17:47:37;15.43;;;7.93;;
42724;SDS011;28369;44.046;23.014;2023-03-14T17:50:03;12.68;;;7.47;;
42724;SDS011;28369;44.046;23.014;2023-03-14T17:52:33;15.20;;;7.80;;
42724;SDS011;28369;44.046;23.014;2023-03-14T17:55:00;17.10;;;8.38;;
42724;SDS011;28369;44.046;23.014;2023-03-14T17:57:27;14.02;;;9.90;;
42724;SDS011;28369;44.046;23.014;2023-03-14T17:59:53;16.70;;;9.95;;
42724;SDS011;28369;44.046;23.014;2023-03-14T18:02:19;20.67;;;10.70;;
42724;SDS011;28369;44.046;23.014;2023-03-14T18:04:47;17.00;;;10.25;;
42724;SDS011;28369;44.046;23.014;2023-03-14T18:07:13;18.73;;;9.52;;
42724;SDS011;28369;44.046;23.014;2023-03-14T18:09:40;20.80;;;13.57;;
42724;SDS011;28369;44.046;23.014;2023-03-14T18:12:07;19.33;;;11.43;;
42724;SDS011;28369;44.046;23.014;2023-03-14T18:14:36;19.90;;;9.50;;
42724;SDS011;28369;44.046;23.014;2023-03-14T18:17:02;16.25;;;10.65;;
42724;SDS011;28369;44.046;23.014;2023-03-14T18:19:29;17.65;;;10.30;;
42724;SDS011;28369;44.046;23.014;2023-03-14T18:21:56;15.15;;;9.02;;
42724;SDS011;28369;44.046;23.014;2023-03-14T18:24:22;14.98;;;8.43;;
42724;SDS011;28369;44.046;23.014;2023-03-14T18:26:47;13.50;;;8.93;;
42724;SDS011;28369;44.046;23.014;2023-03-14T18:29:13;16.10;;;8.27;;
42724;SDS011;28369;44.046;23.014;2023-03-14T18:31:40;11.90;;;7.63;;
42724;SDS011;28369;44.046;23.014;2023-03-14T18:34:09;13.05;;;8.13;;
42724;SDS011;28369;44.046;23.014;2023-03-14T18:36:35;10.20;;;6.32;;
42724;SDS011;28369;44.046;23.014;2023-03-14T18:39:02;10.77;;;6.97;;
42724;SDS011;28369;44.046;23.014;2023-03-14T18:41:31;10.57;;;6.80;;
42724;SDS011;28369;44.046;23.014;2023-03-14T18:43:59;15.32;;;6.65;;
42724;SDS011;28369;44.046;23.014;2023-03-14T18:46:25;21.25;;;7.65;;
42724;SDS011;28369;44.046;23.014;2023-03-14T18:48:51;11.85;;;7.10;;
42724;SDS011;28369;44.046;23.014;2023-03-14T18:51:22;13.63;;;7.70;;
42724;SDS011;28369;44.046;23.014;2023-03-14T18:53:52;11.18;;;7.20;;
42724;SDS011;28369;44.046;23.014;2023-03-14T18:56:19;13.68;;;7.53;;
42724;SDS011;28369;44.046;23.014;2023-03-14T18:58:45;15.95;;;7.80;;
42724;SDS011;28369;44.046;23.014;2023-03-14T19:01:11;13.25;;;8.25;;
42724;SDS011;28369;44.046;23.014;2023-03-14T19:03:37;14.32;;;8.25;;
42724;SDS011;28369;44.046;23.014;2023-03-14T19:06:04;17.25;;;9.70;;
42724;SDS011;28369;44.046;23.014;2023-03-14T19:08:31;14.20;;;9.45;;
42724;SDS011;28369;44.046;23.014;2023-03-14T19:11:00;16.73;;;9.15;;
42724;SDS011;28369;44.046;23.014;2023-03-14T19:13:28;16.65;;;9.20;;
42724;SDS011;28369;44.046;23.014;2023-03-14T19:15:55;12.73;;;9.35;;
42724;SDS011;28369;44.046;23.014;2023-03-14T19:18:22;13.82;;;9.25;;
42724;SDS011;28369;44.046;23.014;2023-03-14T19:21:01;17.63;;;9.38;;
42724;SDS011;28369;44.046;23.014;2023-03-14T19:23:33;18.67;;;9.93;;
42724;SDS011;28369;44.046;23.014;2023-03-14T19:25:59;13.90;;;9.43;;
42724;SDS011;28369;44.046;23.014;2023-03-14T19:28:27;16.48;;;10.00;;
42724;SDS011;28369;44.046;23.014;2023-03-14T19:30:53;13.77;;;9.52;;